Time;durP1;ratioP1;P1;durP2;ratioP2;P2;SDS_P1;SDS_P2;PMS_P1;PMS_P2;Temp;Humidity;BMP_temperature;BMP_pressure;BME280_temperature;BME280_humidity;BME280_pressure;Samples;Min_cycle;Max_cycle;Signal;HPM_P1;HPM_P2
2023/05/21 00:00:49;;;;;;;6.35;3.28;;;;;;;15.35;100.00;100467.13;5018766;28;20041;-77
2023/05/21 00:03:15;;;;;;;6.85;3.97;;;;;;;15.11;100.00;100387.38;5016679;28;20065;-75
2023/05/21 00:05:40;;;;;;;5.75;3.35;;;;;;;15.50;100.00;100473.88;5016510;28;20046;-76
2023/05/21 00:08:06;;;;;;;6.85;4.22;;;;;;;15.49;100.00;100472.13;5017635;28;20030;-80
2023/05/21 00:10:32;;;;;;;4.45;3.88;;;;;;;15.37;100.00;100463.53;5012498;28;20041;-76
2023/05/21 00:12:57;;;;;;;6.45;3.78;;;;;;;15.54;100.00;100492.31;5015328;28;20038;-76
2023/05/21 00:15:23;;;;;;;6.97;3.90;;;;;;;14.92;100.00;100389.50;5017061;28;20124;-79
2023/05/21 00:17:48;;;;;;;7.45;4.07;;;;;;;15.39;100.00;100489.97;5015445;28;20441;-78
2023/05/21 00:20:15;;;;;;;8.07;3.90;;;;;;;14.60;100.00;100350.44;5012571;28;20044;-77
2023/05/21 00:22:41;;;;;;;5.50;3.13;;;;;;;15.33;100.00;100477.72;5003557;28;20057;-80
2023/05/21 00:25:07;;;;;;;6.90;4.30;;;;;;;15.35;100.00;100478.56;5005203;28;20236;-82
2023/05/21 00:27:33;;;;;;;5.25;3.92;;;;;;;15.13;100.00;100434.94;5000779;28;20289;-77
2023/05/21 00:29:58;;;;;;;6.50;4.93;;;;;;;14.74;100.00;100372.19;5007898;28;20041;-79
2023/05/21 00:32:23;;;;;;;7.35;3.75;;;;;;;15.20;100.00;100469.16;5013497;28;20021;-78
2023/05/21 00:34:49;;;;;;;5.35;3.50;;;;;;;15.25;100.00;100478.78;5032212;28;20034;-82
2023/05/21 00:37:15;;;;;;;5.22;3.60;;;;;;;15.22;100.00;100452.38;5033350;28;20411;-79
2023/05/21 00:39:40;;;;;;;11.50;4.72;;;;;;;14.77;100.00;100402.97;5039924;28;20079;-77
2023/05/21 00:42:06;;;;;;;7.10;4.45;;;;;;;15.16;100.00;100472.72;5039325;28;20041;-78
2023/05/21 00:44:33;;;;;;;8.00;4.30;;;;;;;15.11;100.00;100457.88;5029585;28;20069;-76
2023/05/21 00:47:01;;;;;;;6.43;3.90;;;;;;;15.02;100.00;100460.69;5037933;28;20029;-77
2023/05/21 00:49:27;;;;;;;6.90;3.42;;;;;;;15.20;100.00;100470.94;5031907;28;20053;-83
2023/05/21 00:51:54;;;;;;;5.65;4.18;;;;;;;14.93;100.00;100406.22;5049966;28;20417;-78
2023/05/21 00:54:20;;;;;;;6.18;3.58;;;;;;;15.25;100.00;100462.91;5027513;28;20117;-77
2023/05/21 00:56:46;;;;;;;7.47;4.57;;;;;;;14.76;100.00;100382.75;5026387;28;20107;-79
2023/05/21 00:59:14;;;;;;;6.55;4.65;;;;;;;15.16;100.00;100448.94;5023418;28;20515;-80
2023/05/21 01:01:44;;;;;;;8.82;4.85;;;;;;;14.38;100.00;100325.28;5023547;28;20067;-79
2023/05/21 01:04:10;;;;;;;6.53;4.18;;;;;;;14.52;100.00;100347.03;5027041;28;20065;-77
2023/05/21 01:06:36;;;;;;;5.90;3.85;;;;;;;14.97;100.00;100405.25;5036703;28;20048;-78
2023/05/21 01:09:04;;;;;;;5.32;3.95;;;;;;;14.51;100.00;100346.16;5033760;28;20045;-81
2023/05/21 01:11:45;;;;;;;7.57;3.83;;;;;;;14.69;100.00;100389.03;5025045;28;20124;-79
2023/05/21 01:14:13;;;;;;;6.90;5.30;;;;;;;14.32;100.00;100315.69;5033755;28;20045;-78
2023/05/21 01:16:42;;;;;;;5.22;3.20;;;;;;;14.42;100.00;100338.41;5030015;28;20547;-76
2023/05/21 01:19:12;;;;;;;7.07;3.72;;;;;;;14.89;100.00;100434.47;5032854;28;20144;-78
2023/05/21 01:21:43;;;;;;;5.00;3.55;;;;;;;14.94;100.00;100434.41;5029322;28;20049;-78
2023/05/21 01:24:09;;;;;;;5.95;4.18;;;;;;;14.17;100.00;100319.47;5029261;28;20037;-76
2023/05/21 01:26:37;;;;;;;6.68;4.55;;;;;;;14.30;100.00;100342.09;5035405;28;20499;-75
2023/05/21 01:29:06;;;;;;;7.95;5.78;;;;;;;14.49;100.00;100379.66;5042717;28;20049;-78
2023/05/21 01:31:57;;;;;;;7.97;4.90;;;;;;;14.82;100.00;100435.47;5032840;28;20049;-79
2023/05/21 01:34:30;;;;;;;6.25;3.83;;;;;;;14.49;100.00;100387.56;5036042;28;20129;-80
2023/05/21 01:37:28;;;;;;;6.03;4.43;;;;;;;14.74;100.00;100432.09;5016719;28;20038;-75
2023/05/21 01:39:58;;;;;;;11.15;4.70;;;;;;;14.62;100.00;100409.38;5021012;28;20052;-80
2023/05/21 01:42:26;;;;;;;10.15;5.45;;;;;;;14.76;100.00;100430.28;5018382;28;20446;-75
2023/05/21 01:44:55;;;;;;;6.10;4.70;;;;;;;14.04;100.00;100320.53;5012657;28;20111;-79
2023/05/21 01:47:25;;;;;;;9.20;5.60;;;;;;;14.52;100.00;100419.19;5005211;28;20022;-75
2023/05/21 01:49:51;;;;;;;7.13;4.13;;;;;;;13.97;100.00;100301.31;5016808;28;20465;-76
2023/05/21 01:52:17;;;;;;;6.25;3.83;;;;;;;14.46;100.00;100421.94;5021612;28;20046;-78
2023/05/21 01:54:43;;;;;;;6.50;3.97;;;;;;;14.42;100.00;100403.50;5012958;28;20072;-80
2023/05/21 01:57:08;;;;;;;7.68;5.40;;;;;;;14.53;100.00;100420.94;5010279;28;20421;-77
2023/05/21 01:59:35;;;;;;;6.30;4.32;;;;;;;14.32;100.00;100387.81;5016248;28;20478;-77
2023/05/21 02:02:00;;;;;;;6.38;3.90;;;;;;;14.09;100.00;100345.09;5014671;28;20033;-78
2023/05/21 02:04:26;;;;;;;7.20;3.90;;;;;;;14.41;100.00;100407.94;5012295;28;20040;-77
2023/05/21 02:06:53;;;;;;;12.32;6.38;;;;;;;13.81;100.00;100305.06;5008261;28;20046;-77
2023/05/21 02:09:19;;;;;;;8.13;4.43;;;;;;;13.72;100.00;100270.03;5016169;28;20054;-77
2023/05/21 02:11:44;;;;;;;7.25;4.28;;;;;;;14.32;100.00;100379.91;5017051;28;20037;-76
2023/05/21 02:14:12;;;;;;;7.20;3.72;;;;;;;14.40;100.00;100363.06;5014265;28;20049;-77
2023/05/21 02:16:38;;;;;;;5.75;4.18;;;;;;;14.41;100.00;100386.81;5013209;28;20072;-79
2023/05/21 02:19:05;;;;;;;7.28;3.75;;;;;;;14.42;100.00;100363.91;5015053;28;20081;-78
2023/05/21 02:21:31;;;;;;;6.35;3.67;;;;;;;13.74;100.00;100256.81;5020129;28;20091;-74
2023/05/21 02:23:56;;;;;;;4.57;3.53;;;;;;;13.90;100.00;100289.97;5007289;28;20430;-75
2023/05/21 02:26:22;;;;;;;6.47;3.50;;;;;;;14.21;100.00;100333.47;5011861;28;20461;-77
2023/05/21 02:28:47;;;;;;;6.30;4.43;;;;;;;14.48;100.00;100361.19;5016498;28;20068;-76
2023/05/21 02:31:12;;;;;;;14.52;5.80;;;;;;;14.30;100.00;100349.16;5018705;28;20041;-77
2023/05/21 02:33:41;;;;;;;6.53;4.13;;;;;;;13.97;100.00;100289.88;5016572;28;20121;-78
2023/05/21 02:36:11;;;;;;;6.93;4.22;;;;;;;14.35;100.00;100355.22;5016201;28;20042;-75
2023/05/21 02:38:42;;;;;;;9.02;3.88;;;;;;;13.65;100.00;100247.31;5012871;28;20037;-76
2023/05/21 02:41:11;;;;;;;6.40;3.97;;;;;;;14.40;100.00;100374.53;5019621;28;20700;-77
2023/05/21 02:43:37;;;;;;;6.18;4.13;;;;;;;13.94;100.00;100296.09;5013606;28;20026;-76
2023/05/21 02:46:04;;;;;;;7.00;5.03;;;;;;;14.12;100.00;100329.22;5020450;28;20056;-75
2023/05/21 02:48:30;;;;;;;7.40;4.95;;;;;;;13.55;100.00;100229.00;5012235;28;20095;-76
2023/05/21 02:50:55;;;;;;;7.43;3.85;;;;;;;14.42;100.00;100382.41;5022615;28;20049;-75
2023/05/21 02:53:21;;;;;;;5.90;3.58;;;;;;;14.52;100.00;100398.06;5013198;28;20092;-78
2023/05/21 02:55:46;;;;;;;7.70;4.45;;;;;;;14.60;100.00;100405.91;5008105;28;20037;-77
2023/05/21 02:58:13;;;;;;;8.15;3.95;;;;;;;14.65;100.00;100380.28;5011238;28;20137;-77
2023/05/21 03:00:39;;;;;;;7.03;4.13;;;;;;;13.59;100.00;100223.66;5009414;28;20596;-76
2023/05/21 03:03:04;;;;;;;9.30;5.13;;;;;;;14.58;100.00;100397.13;5006921;28;20038;-76
2023/05/21 03:05:30;;;;;;;8.50;4.50;;;;;;;14.64;100.00;100385.59;5018412;28;20521;-77
2023/05/21 03:07:56;;;;;;;6.68;4.30;;;;;;;14.65;100.00;100398.75;5016422;28;20034;-76
2023/05/21 03:10:21;;;;;;;5.93;4.20;;;;;;;14.78;100.00;100404.72;5026986;28;20808;-77
2023/05/21 03:12:47;;;;;;;7.47;4.25;;;;;;;14.74;100.00;100409.16;5005313;28;20516;-75
2023/05/21 03:15:15;;;;;;;4.85;3.38;;;;;;;14.06;100.00;100282.69;5010889;28;20053;-78
2023/05/21 03:17:41;;;;;;;8.23;4.47;;;;;;;13.84;100.00;100305.03;5009788;28;20038;-76
2023/05/21 03:20:15;;;;;;;7.53;5.00;;;;;;;13.81;100.00;100316.47;5011809;28;20037;-75
2023/05/21 03:22:42;;;;;;;6.70;4.72;;;;;;;14.40;100.00;100415.88;5010968;28;20128;-75
2023/05/21 03:25:09;;;;;;;7.57;4.35;;;;;;;13.61;100.00;100274.59;5008123;28;20154;-76
2023/05/21 03:27:34;;;;;;;6.85;4.05;;;;;;;13.63;100.00;100278.09;5014715;28;20661;-76
2023/05/21 03:30:00;;;;;;;5.72;4.43;;;;;;;14.28;100.00;100382.63;5009753;28;20054;-76
2023/05/21 03:32:25;;;;;;;5.72;3.55;;;;;;;13.61;100.00;100263.19;5015949;28;20410;-80
2023/05/21 03:34:52;;;;;;;6.18;3.85;;;;;;;14.44;100.00;100381.47;5008550;28;20038;-77
2023/05/21 03:37:17;;;;;;;6.45;3.83;;;;;;;14.26;100.00;100358.91;5017448;28;20046;-78
2023/05/21 03:39:43;;;;;;;6.35;3.72;;;;;;;14.26;100.00;100358.91;5017509;28;20115;-78
2023/05/21 03:42:08;;;;;;;8.30;4.25;;;;;;;13.86;100.00;100292.69;5018631;28;20070;-77
2023/05/21 03:44:34;;;;;;;6.20;4.75;;;;;;;13.96;100.00;100293.44;5007137;28;20061;-75
2023/05/21 03:47:00;;;;;;;6.18;4.03;;;;;;;14.06;100.00;100295.00;5020663;28;20029;-78
2023/05/21 03:49:25;;;;;;;5.55;2.97;;;;;;;14.19;100.00;100322.06;5022008;28;20038;-79
2023/05/21 03:51:51;;;;;;;5.22;3.10;;;;;;;14.60;100.00;100392.69;5015940;28;20037;-78
2023/05/21 03:54:17;;;;;;;5.75;4.10;;;;;;;14.09;100.00;100285.28;5013271;28;20102;-77
2023/05/21 03:56:43;;;;;;;5.57;3.95;;;;;;;14.15;100.00;100301.00;5010357;28;20077;-77
2023/05/21 03:59:08;;;;;;;7.90;4.45;;;;;;;14.19;100.00;100303.59;5010941;28;20488;-78
2023/05/21 04:01:34;;;;;;;6.25;4.55;;;;;;;14.90;100.00;100415.06;5007541;28;20030;-77
2023/05/21 04:03:59;;;;;;;14.90;4.95;;;;;;;14.62;100.00;100371.56;5016717;28;20065;-75
2023/05/21 04:06:24;;;;;;;6.68;4.13;;;;;;;14.86;100.00;100413.38;5006700;28;20042;-75
2023/05/21 04:08:51;;;;;;;5.60;3.75;;;;;;;14.40;100.00;100341.94;5011174;28;20127;-76
2023/05/21 04:11:16;;;;;;;5.10;3.47;;;;;;;14.88;100.00;100434.50;5012900;28;20034;-76
2023/05/21 04:13:42;;;;;;;7.47;4.85;;;;;;;14.37;100.00;100334.97;5029668;28;20078;-77
2023/05/21 04:16:08;;;;;;;7.10;3.75;;;;;;;14.30;100.00;100301.66;5005979;28;20046;-74
2023/05/21 04:18:34;;;;;;;5.18;3.50;;;;;;;15.07;100.00;100425.31;5022933;28;20037;-78
2023/05/21 04:21:00;;;;;;;4.30;3.22;;;;;;;14.95;100.00;100385.91;5010571;28;20053;-77
2023/05/21 04:23:27;;;;;;;6.53;3.80;;;;;;;14.50;100.00;100311.88;5011685;28;20026;-79
2023/05/21 04:25:52;;;;;;;7.10;4.47;;;;;;;15.06;100.00;100391.88;5007431;28;20034;-76
2023/05/21 04:28:18;;;;;;;6.38;4.45;;;;;;;15.29;100.00;100420.53;5009864;28;20490;-76
2023/05/21 04:30:45;;;;;;;6.05;4.05;;;;;;;14.98;100.00;100364.72;5012713;28;20070;-77
2023/05/21 04:33:11;;;;;;;6.53;4.25;;;;;;;14.89;100.00;100330.53;5021892;28;20052;-76
2023/05/21 04:35:43;;;;;;;5.82;3.53;;;;;;;15.53;100.00;100415.66;5034531;28;20037;-77
2023/05/21 04:38:09;;;;;;;5.63;3.70;;;;;;;15.58;100.00;100421.72;5023458;28;20372;-76
2023/05/21 04:40:34;;;;;;;6.82;4.22;;;;;;;15.68;100.00;100425.91;5034552;28;20037;-78
2023/05/21 04:43:01;;;;;;;5.10;3.67;;;;;;;14.63;100.00;100213.06;5046914;28;20545;-77
2023/05/21 04:45:28;;;;;;;7.05;4.38;;;;;;;15.06;100.00;100270.31;5039335;28;20041;-78
2023/05/21 04:47:53;;;;;;;8.55;4.20;;;;;;;15.75;100.00;100363.19;5040367;28;20057;-76
2023/05/21 04:50:19;;;;;;;6.10;3.78;;;;;;;15.55;100.00;100306.28;5036058;28;20029;-76
2023/05/21 04:52:44;;;;;;;4.72;2.95;;;;;;;16.20;100.00;100400.09;5041758;28;20033;-78
2023/05/21 04:55:10;;;;;;;6.82;3.95;;;;;;;16.51;100.00;100439.13;5025224;28;20136;-78
2023/05/21 04:57:36;;;;;;;5.82;3.65;;;;;;;16.09;100.00;100334.19;5037837;28;20029;-75
2023/05/21 05:00:04;;;;;;;4.35;2.88;;;;;;;16.41;100.00;100382.81;5047512;28;20469;-75
2023/05/21 05:02:30;;;;;;;8.75;4.03;;;;;;;16.71;100.00;100388.25;5034725;28;20042;-77
2023/05/21 05:04:55;;;;;;;5.68;3.53;;;;;;;16.41;100.00;100309.56;5032697;28;20400;-81
2023/05/21 05:07:21;;;;;;;9.80;2.95;;;;;;;17.34;100.00;100419.28;5036797;28;20039;-77
2023/05/21 05:09:47;;;;;;;5.45;3.83;;;;;;;17.43;100.00;100415.53;5028895;28;20034;-78
2023/05/21 05:12:12;;;;;;;6.22;2.55;;;;;;;18.00;100.00;100443.09;5027663;28;20045;-78
2023/05/21 05:14:38;;;;;;;5.05;3.63;;;;;;;18.27;100.00;100447.56;5022541;28;20100;-76
2023/05/21 05:17:04;;;;;;;4.68;3.30;;;;;;;18.58;100.00;100457.22;5010068;28;20033;-77
2023/05/21 05:19:30;;;;;;;7.22;4.07;;;;;;;18.22;100.00;100335.28;5013336;28;20076;-77
2023/05/21 05:21:56;;;;;;;5.65;3.67;;;;;;;19.12;100.00;100431.50;5010972;28;20367;-77
2023/05/21 05:24:21;;;;;;;4.40;3.03;;;;;;;19.69;100.00;100469.41;5011017;28;20044;-75
2023/05/21 05:26:47;;;;;;;4.97;3.33;;;;;;;19.57;100.00;100481.34;5013325;28;20049;-75
2023/05/21 05:29:12;;;;;;;5.43;3.13;;;;;;;19.99;100.00;100462.97;5018268;28;20162;-77
2023/05/21 05:31:38;;;;;;;6.88;2.80;;;;;;;20.04;100.00;100449.44;5018823;28;20035;-77
2023/05/21 05:34:03;;;;;;;5.75;3.67;;;;;;;19.70;100.00;100375.31;5012970;28;20115;-76
2023/05/21 05:36:28;;;;;;;9.07;3.08;;;;;;;19.93;100.00;100363.78;5017955;28;20041;-76
2023/05/21 05:38:54;;;;;;;5.80;3.40;;;;;;;20.57;100.00;100474.94;5013806;28;20062;-77
2023/05/21 05:41:19;;;;;;;4.28;2.47;;;;;;;20.43;100.00;100385.69;5018055;28;20022;-79
2023/05/21 05:43:45;;;;;;;3.90;2.40;;;;;;;20.77;100.00;100427.00;5016745;28;20521;-76
2023/05/21 05:46:10;;;;;;;6.50;3.20;;;;;;;20.68;100.00;100421.19;5010853;28;20421;-78
2023/05/21 05:48:36;;;;;;;4.10;2.53;;;;;;;21.15;100.00;100480.53;5011657;28;20097;-76
2023/05/21 05:51:01;;;;;;;4.78;2.63;;;;;;;20.50;100.00;100361.47;5009607;28;20383;-79
2023/05/21 05:53:27;;;;;;;4.70;2.88;;;;;;;21.00;100.00;100382.44;5000736;28;20025;-74
2023/05/21 05:55:52;;;;;;;3.47;2.08;;;;;;;21.48;100.00;100464.88;5006571;28;20555;-74
2023/05/21 05:58:18;;;;;;;4.75;2.58;;;;;;;21.35;100.00;100470.78;5017176;28;20069;-76
2023/05/21 06:00:43;;;;;;;7.05;3.40;;;;;;;21.84;100.00;100479.28;5005777;28;20061;-76
2023/05/21 06:03:10;;;;;;;4.03;2.38;;;;;;;21.49;100.00;100465.72;5012509;28;20054;-76
2023/05/21 06:05:36;;;;;;;4.05;2.05;;;;;;;21.36;100.00;100368.41;5001272;28;20042;-76
2023/05/21 06:08:01;;;;;;;5.00;2.78;;;;;;;21.00;100.00;100362.00;5012723;28;20034;-75
2023/05/21 06:10:27;;;;;;;4.63;2.72;;;;;;;21.12;100.00;100415.72;5011415;28;20050;-78
2023/05/21 06:12:52;;;;;;;4.85;3.08;;;;;;;21.71;100.00;100361.47;4996891;28;20537;-76
2023/05/21 06:15:18;;;;;;;3.10;2.30;;;;;;;22.13;97.67;100456.59;5006511;28;20042;-71
2023/05/21 06:17:44;;;;;;;4.18;2.55;;;;;;;22.65;96.47;100480.84;5004221;28;20076;-72
2023/05/21 06:20:10;;;;;;;3.95;2.28;;;;;;;21.81;96.53;100464.28;4994549;28;20038;-73
2023/05/21 06:22:36;;;;;;;4.53;2.75;;;;;;;21.96;94.68;100456.50;5009140;28;20033;-71
2023/05/21 06:25:02;;;;;;;5.10;2.80;;;;;;;22.23;94.61;100465.06;5006400;28;20422;-73
2023/05/21 06:27:27;;;;;;;3.05;2.00;;;;;;;21.07;97.20;100374.13;5001863;28;20072;-72
2023/05/21 06:29:53;;;;;;;3.88;1.80;;;;;;;21.91;93.96;100433.53;5016061;28;20414;-72
2023/05/21 06:32:20;;;;;;;3.67;2.05;;;;;;;21.72;97.04;100459.34;5005956;28;20644;-72
2023/05/21 06:34:45;;;;;;;4.75;3.28;;;;;;;21.32;97.83;100359.66;5006334;28;20026;-70
2023/05/21 06:37:11;;;;;;;4.32;2.70;;;;;;;21.91;96.09;100448.69;4997238;28;20049;-72
2023/05/21 06:39:36;;;;;;;4.70;2.63;;;;;;;21.22;99.66;100335.22;5006588;28;20064;-72
2023/05/21 06:42:02;;;;;;;8.85;2.00;;;;;;;21.99;98.27;100441.19;5004162;28;20049;-75
2023/05/21 06:44:27;;;;;;;4.68;2.78;;;;;;;22.02;98.66;100443.72;4997396;28;20030;-72
2023/05/21 06:46:53;;;;;;;4.53;1.98;;;;;;;21.12;99.53;100339.25;4998505;28;20208;-72
2023/05/21 06:49:18;;;;;;;3.80;2.40;;;;;;;21.71;100.00;100449.63;5002778;28;20042;-71
2023/05/21 06:51:44;;;;;;;3.08;1.70;;;;;;;21.57;96.59;100338.09;5000929;28;20061;-74
2023/05/21 06:54:11;;;;;;;6.85;3.85;;;;;;;21.45;97.85;100328.00;5001330;28;20856;-75
2023/05/21 06:56:37;;;;;;;4.53;2.28;;;;;;;21.78;94.54;100354.91;4999719;28;20046;-73
2023/05/21 06:59:02;;;;;;;4.10;2.30;;;;;;;21.78;92.55;100354.91;4999569;28;20034;-75
2023/05/21 07:01:29;;;;;;;5.97;3.47;;;;;;;22.24;92.59;100429.34;4993319;28;20454;-74
2023/05/21 07:03:54;;;;;;;3.58;2.28;;;;;;;22.44;90.64;100428.41;5006705;28;20054;-75
2023/05/21 07:06:21;;;;;;;3.78;2.45;;;;;;;22.01;90.55;100343.13;5000543;28;20460;-77
2023/05/21 07:08:48;;;;;;;4.18;1.63;;;;;;;22.18;86.86;100381.53;5007551;28;20041;-78
2023/05/21 07:11:14;;;;;;;2.70;1.88;;;;;;;22.18;89.85;100424.28;5006044;28;20062;-75
2023/05/21 07:13:39;;;;;;;5.90;2.67;;;;;;;21.38;89.88;100313.16;5006979;28;20064;-76
2023/05/21 07:16:05;;;;;;;6.38;2.08;;;;;;;22.12;90.64;100404.06;4996172;28;20121;-77
2023/05/21 07:18:31;;;;;;;3.42;2.30;;;;;;;21.86;89.87;100402.63;4999853;28;20131;-78
2023/05/21 07:20:56;;;;;;;5.57;2.97;;;;;;;22.23;91.48;100396.41;5004514;28;20046;-77
2023/05/21 07:23:22;;;;;;;2.47;1.50;;;;;;;21.61;91.41;100283.59;5006102;28;20030;-74
2023/05/21 07:25:47;;;;;;;5.43;3.35;;;;;;;21.50;91.87;100344.66;4995666;28;20038;-76
2023/05/21 07:28:13;;;;;;;4.35;2.08;;;;;;;21.67;94.21;100381.25;5006534;28;20104;-77
2023/05/21 07:30:38;;;;;;;6.93;2.47;;;;;;;22.10;95.63;100409.50;5013870;28;20156;-78
2023/05/21 07:33:04;;;;;;;4.93;3.08;;;;;;;22.58;92.10;100406.31;5015433;28;20042;-77
2023/05/21 07:35:29;;;;;;;3.65;2.15;;;;;;;22.13;90.51;100322.94;5012662;28;20068;-76
2023/05/21 07:37:54;;;;;;;4.15;1.65;;;;;;;22.43;91.10;100399.91;5006915;28;20038;-77
2023/05/21 07:40:20;;;;;;;3.40;2.15;;;;;;;21.69;89.51;100301.94;5023527;28;20041;-75
2023/05/21 07:42:45;;;;;;;3.53;2.22;;;;;;;21.77;91.46;100334.47;5023492;28;20377;-78
2023/05/21 07:45:11;;;;;;;3.88;2.47;;;;;;;22.13;90.02;100313.13;5014402;28;20073;-77
2023/05/21 07:47:36;;;;;;;2.97;1.90;;;;;;;22.14;87.60;100319.31;5029116;28;20045;-78
2023/05/21 07:50:02;;;;;;;4.53;2.45;;;;;;;21.75;90.23;100279.38;5020846;28;20034;-76
2023/05/21 07:52:28;;;;;;;4.43;2.33;;;;;;;22.48;90.23;100409.47;5018263;28;20052;-78
2023/05/21 07:54:53;;;;;;;3.15;1.73;;;;;;;22.44;89.23;100407.88;5016396;28;20053;-77
2023/05/21 07:57:19;;;;;;;3.80;2.25;;;;;;;22.34;87.79;100340.63;5014849;28;20053;-78
2023/05/21 07:59:44;;;;;;;3.85;2.13;;;;;;;22.86;87.00;100369.19;5018845;28;20120;-78
2023/05/21 08:02:09;;;;;;;3.78;2.08;;;;;;;21.93;89.93;100214.38;5017666;28;20035;-77
2023/05/21 08:04:35;;;;;;;3.53;2.53;;;;;;;22.74;87.91;100397.44;5017542;28;20034;-77
2023/05/21 08:07:01;;;;;;;4.03;2.53;;;;;;;22.69;88.87;100366.53;5011913;28;20115;-78
2023/05/21 08:09:27;;;;;;;3.65;1.92;;;;;;;23.18;87.89;100369.38;5021491;28;20081;-76
2023/05/21 08:11:52;;;;;;;4.47;2.30;;;;;;;22.60;85.91;100284.94;5036215;28;20049;-78
2023/05/21 08:14:18;;;;;;;3.83;2.38;;;;;;;22.69;84.69;100289.81;5016030;28;20046;-76
2023/05/21 08:16:44;;;;;;;3.17;2.17;;;;;;;23.12;79.51;100330.38;5025228;28;20025;-77
2023/05/21 08:19:09;;;;;;;6.13;2.50;;;;;;;23.24;78.49;100395.78;5009021;28;20060;-77
2023/05/21 08:21:35;;;;;;;3.92;1.83;;;;;;;23.36;76.16;100359.47;5011272;28;20046;-75
2023/05/21 08:24:01;;;;;;;6.97;2.53;;;;;;;23.29;76.28;100315.22;5016014;28;20038;-76
2023/05/21 08:26:27;;;;;;;3.08;1.95;;;;;;;23.24;79.70;100346.75;5016195;28;20753;-74
2023/05/21 08:28:52;;;;;;;4.22;2.00;;;;;;;23.51;79.92;100382.75;5018265;28;20049;-77
2023/05/21 08:31:18;;;;;;;4.30;2.60;;;;;;;23.12;79.36;100313.47;5017374;28;20133;-75
2023/05/21 08:33:51;;;;;;;3.97;2.33;;;;;;;24.28;74.82;100412.47;5021603;28;20049;-76
2023/05/21 08:36:16;;;;;;;;;;;;;;;24.99;72.28;100411.94;5019555;28;20076;-74
2023/05/21 08:38:42;;;;;;;8.88;3.65;;;;;;;23.57;72.27;100406.50;5018372;28;20476;-75
2023/05/21 08:41:10;;;;;;;2.75;1.67;;;;;;;24.09;72.20;100396.56;5023857;28;20076;-76
2023/05/21 08:43:36;;;;;;;4.35;1.95;;;;;;;23.03;71.12;100319.31;5024369;28;20076;-76
2023/05/21 08:46:03;;;;;;;5.15;2.80;;;;;;;22.88;75.63;100315.59;5020840;28;20041;-81
2023/05/21 08:48:30;;;;;;;5.45;2.15;;;;;;;23.23;74.09;100326.28;5014863;28;20069;-75
2023/05/21 08:50:57;;;;;;;3.30;2.38;;;;;;;23.25;73.90;100319.91;5019002;28;20513;-76
2023/05/21 08:53:23;;;;;;;3.58;2.45;;;;;;;24.35;70.19;100376.28;5033579;28;20758;-76
2023/05/21 08:55:54;;;;;;;3.50;2.30;;;;;;;23.89;69.88;100312.78;5018008;28;20037;-77
2023/05/21 08:58:20;;;;;;;4.78;2.20;;;;;;;24.22;70.06;100401.16;5021417;28;20034;-78
2023/05/21 09:00:46;;;;;;;5.90;2.03;;;;;;;24.01;68.80;100383.59;5016541;28;20053;-76
2023/05/21 09:03:13;;;;;;;3.63;2.40;;;;;;;23.70;65.59;100302.22;5019357;28;20052;-77
2023/05/21 09:05:42;;;;;;;3.70;1.90;;;;;;;24.29;63.39;100267.56;5022940;28;20056;-77
2023/05/21 09:08:20;;;;;;;9.32;3.38;;;;;;;24.58;64.32;100404.50;5025547;28;20052;-76
2023/05/21 09:10:50;;;;;;;4.47;2.45;;;;;;;24.74;63.13;100377.63;5022253;28;20033;-77
2023/05/21 09:13:16;;;;;;;2.38;1.77;;;;;;;25.47;57.70;100402.72;5027684;28;20041;-77
2023/05/21 09:15:47;;;;;;;3.13;1.92;;;;;;;24.36;57.60;100308.31;5032102;28;20077;-79
2023/05/21 09:18:13;;;;;;;3.90;2.25;;;;;;;24.75;58.58;100390.97;5023343;28;20037;-79
2023/05/21 09:20:39;;;;;;;2.95;2.03;;;;;;;24.70;60.35;100393.06;5021690;28;20052;-76
2023/05/21 09:23:16;;;;;;;6.03;2.40;;;;;;;24.76;58.68;100328.28;5022642;28;20049;-78
2023/05/21 09:25:46;;;;;;;4.25;2.35;;;;;;;26.11;57.75;100430.06;5024849;28;20041;-77
2023/05/21 09:28:15;;;;;;;3.63;2.45;;;;;;;25.23;56.33;100415.84;5027868;28;20038;-77
2023/05/21 09:30:52;;;;;;;4.03;2.65;;;;;;;25.70;56.10;100413.84;5025403;28;20050;-77
2023/05/21 09:33:30;;;;;;;3.63;1.80;;;;;;;24.31;57.76;100323.81;5033962;28;20056;-77
2023/05/21 09:35:56;;;;;;;3.67;2.05;;;;;;;25.39;57.01;100351.28;5032269;28;20092;-77
2023/05/21 09:38:22;;;;;;;4.88;1.85;;;;;;;26.52;52.31;100337.66;5037981;28;20041;-76
2023/05/21 09:40:48;;;;;;;5.72;1.92;;;;;;;26.18;53.19;100405.47;5032758;28;20384;-76
2023/05/21 09:43:17;;;;;;;2.67;1.63;;;;;;;26.20;52.21;100401.72;5050748;28;20044;-75
2023/05/21 09:45:53;;;;;;;3.90;2.67;;;;;;;25.34;52.36;100294.31;5017173;28;20246;-76
2023/05/21 09:48:33;;;;;;;2.85;1.63;;;;;;;24.98;50.75;100368.13;5036784;28;20098;-76
2023/05/21 09:51:13;;;;;;;4.43;2.30;;;;;;;25.96;50.05;100396.06;5025333;28;20777;-74
2023/05/21 09:53:53;;;;;;;5.00;2.13;;;;;;;26.56;48.39;100380.56;5028767;28;20151;-75
2023/05/21 09:56:25;;;;;;;5.00;2.13;;;;;;;26.62;48.96;100407.03;5027730;28;20891;-77
2023/05/21 09:58:55;;;;;;;3.00;1.95;;;;;;;27.36;48.13;100386.72;5028871;28;20175;-77
2023/05/21 10:01:22;;;;;;;3.70;2.67;;;;;;;28.05;46.69;100408.75;5004719;28;20034;-74
2023/05/21 10:03:55;;;;;;;11.80;2.25;;;;;;;27.62;45.36;100298.59;5009976;28;20058;-74
2023/05/21 10:06:25;;;;;;;4.25;2.03;;;;;;;28.31;44.77;100409.53;5032262;28;20048;-75
2023/05/21 10:08:54;;;;;;;3.42;1.88;;;;;;;27.46;45.47;100314.16;5041032;28;20140;-83
2023/05/21 10:11:22;;;;;;;3.38;2.25;;;;;;;28.38;45.18;100396.44;5036612;28;20041;-76
2023/05/21 10:13:54;;;;;;;5.53;4.03;;;;;;;28.26;46.04;100387.44;5028551;28;20140;-74
2023/05/21 10:16:20;;;;;;;2.70;1.45;;;;;;;26.66;45.86;100280.22;5041542;28;20029;-72
2023/05/21 10:18:48;;;;;;;2.92;1.85;;;;;;;26.26;48.40;100386.97;5021969;28;20045;-73
2023/05/21 10:21:14;;;;;;;2.60;1.45;;;;;;;27.04;47.52;100333.25;5001434;28;20123;-74
2023/05/21 10:23:41;;;;;;;3.72;2.05;;;;;;;25.51;50.13;100362.22;5009923;28;20134;-73
2023/05/21 10:26:07;;;;;;;3.40;1.88;;;;;;;25.95;49.16;100292.19;5004075;28;20580;-73
2023/05/21 10:28:33;;;;;;;6.32;1.90;;;;;;;26.46;48.14;100318.41;5033600;28;20120;-73
2023/05/21 10:30:59;;;;;;;3.30;2.05;;;;;;;26.52;47.70;100288.34;5035457;28;20041;-74
2023/05/21 10:33:26;;;;;;;2.97;2.00;;;;;;;25.09;48.84;100367.44;5054933;28;20045;-74
2023/05/21 10:35:53;;;;;;;6.03;2.63;;;;;;;25.30;49.49;100396.66;5030004;28;20053;-71
2023/05/21 10:38:19;;;;;;;4.90;2.58;;;;;;;24.97;51.03;100317.19;5046263;28;20103;-72
2023/05/21 10:40:47;;;;;;;3.72;1.70;;;;;;;24.97;50.96;100344.03;5036015;28;20099;-74
2023/05/21 10:43:22;;;;;;;4.22;2.72;;;;;;;25.59;50.28;100401.09;5050419;28;20492;-74
2023/05/21 10:46:06;;;;;;;3.97;1.88;;;;;;;25.30;51.00;100391.28;5037139;28;20045;-73
2023/05/21 10:48:49;;;;;;;5.22;1.92;;;;;;;25.53;49.80;100395.25;5037996;28;20508;-74
2023/05/21 10:51:21;;;;;;;3.90;2.40;;;;;;;26.34;48.61;100309.31;5040947;28;20064;-72
2023/05/21 10:54:08;;;;;;;3.67;1.80;;;;;;;26.99;47.06;100391.94;5033205;28;20124;-73
2023/05/21 10:57:15;;;;;;;2.63;1.58;;;;;;;27.31;47.63;100396.97;5024732;28;20050;-75
2023/05/21 10:59:47;;;;;;;3.30;1.40;;;;;;;28.02;44.93;100375.75;4967627;28;20146;-75
2023/05/21 11:02:18;;;;;;;4.30;2.20;;;;;;;27.20;45.55;100286.38;5001451;28;20100;-72
2023/05/21 11:04:44;;;;;;;2.88;2.13;;;;;;;25.70;46.15;100374.38;5009017;28;20112;-73
2023/05/21 11:07:21;;;;;;;4.90;2.42;;;;;;;26.76;45.05;100379.19;5034315;28;20028;-73
2023/05/21 11:09:49;;;;;;;4.75;2.78;;;;;;;26.55;45.14;100350.09;5024728;28;20083;-73
2023/05/21 11:12:16;;;;;;;4.95;2.15;;;;;;;24.64;47.53;100286.09;5044751;28;20073;-74
2023/05/21 11:14:57;;;;;;;3.10;1.92;;;;;;;25.03;48.25;100335.63;5031378;28;20128;-72
2023/05/21 11:17:37;;;;;;;3.28;1.88;;;;;;;25.94;47.43;100268.06;5030524;28;20049;-74
2023/05/21 11:20:07;;;;;;;7.65;2.25;;;;;;;26.72;47.03;100290.56;5026277;28;20798;-74
2023/05/21 11:22:34;;;;;;;2.85;1.60;;;;;;;27.11;45.42;100290.56;5034575;28;20110;-73